Time;durP1;ratioP1;P1;durP2;ratioP2;P2;SDS_P1;SDS_P2;PMS_P1;PMS_P2;Temp;Humidity;BMP_temperature;BMP_pressure;BME280_temperature;BME280_humidity;BME280_pressure;Samples;Min_cycle;Max_cycle;Signal;HPM_P1;HPM_P2
2021/03/02 00:00:24;;;;;;;13.60;10.00;;;;;;;;;;5116848;28;20528;-84
2021/03/02 00:02:50;;;;;;;14.03;9.50;;;;;;;;;;5116925;28;20466;-88
2021/03/02 00:05:16;;;;;;;13.33;9.93;;;;;;;;;;5118436;28;20225;-89
2021/03/02 00:07:42;;;;;;;13.87;9.87;;;;;;;;;;5118472;28;20581;-88
2021/03/02 00:10:09;;;;;;;11.23;8.83;;;;;;;;;;5116631;28;20527;-87
2021/03/02 00:12:36;;;;;;;11.73;9.10;;;;;;;;;;5117954;28;20244;-87
2021/03/02 00:15:03;;;;;;;14.00;9.97;;;;;;;;;;5117581;28;20231;-86
2021/03/02 00:17:32;;;;;;;18.97;10.53;;;;;;;;;;5117609;28;20232;-87
2021/03/02 00:20:02;;;;;;;16.77;9.97;;;;;;;;;;5116984;28;20189;-85
2021/03/02 00:22:29;;;;;;;15.77;9.67;;;;;;;;;;5117028;28;20482;-88
2021/03/02 00:24:57;;;;;;;16.37;9.87;;;;;;;;;;5118049;28;20242;-88
2021/03/02 00:27:23;;;;;;;14.07;9.60;;;;;;;;;;5118174;28;20593;-87
2021/03/02 00:29:50;;;;;;;10.23;9.07;;;;;;;;;;5116409;28;20232;-86
2021/03/02 00:32:18;;;;;;;12.80;9.07;;;;;;;;;;5117615;28;20263;-87
2021/03/02 00:34:45;;;;;;;12.70;9.07;;;;;;;;;;5116688;28;20197;-88
2021/03/02 00:37:11;;;;;;;13.23;9.10;;;;;;;;;;5117419;28;20333;-88
2021/03/02 00:39:37;;;;;;;12.73;9.07;;;;;;;;;;5117269;28;20182;-88
2021/03/02 00:42:03;;;;;;;12.00;9.80;;;;;;;;;;5117006;28;20363;-88
2021/03/02 00:44:30;;;;;;;13.73;9.03;;;;;;;;;;5117031;28;20238;-88
2021/03/02 00:46:56;;;;;;;10.83;9.27;;;;;;;;;;5116740;28;20193;-88
2021/03/02 00:49:22;;;;;;;11.40;9.20;;;;;;;;;;5117966;28;20570;-87
2021/03/02 00:51:49;;;;;;;13.63;9.40;;;;;;;;;;5117364;28;20550;-88
2021/03/02 00:54:15;;;;;;;12.13;9.50;;;;;;;;;;5118002;28;20231;-88
2021/03/02 00:56:41;;;;;;;12.40;9.47;;;;;;;;;;5116860;28;20203;-88
2021/03/02 00:59:07;;;;;;;13.60;10.00;;;;;;;;;;5117478;28;20174;-88
2021/03/02 01:01:34;;;;;;;14.60;9.27;;;;;;;;;;5116375;28;20232;-88
2021/03/02 01:04:00;;;;;;;13.67;9.93;;;;;;;;;;5116516;28;20641;-88
2021/03/02 01:06:26;;;;;;;12.07;9.23;;;;;;;;;;5116644;28;20216;-88
2021/03/02 01:08:53;;;;;;;13.97;9.73;;;;;;;;;;5117867;28;20224;-89
2021/03/02 01:11:19;;;;;;;11.03;9.13;;;;;;;;;;5116695;28;20253;-88
2021/03/02 01:13:46;;;;;;;13.53;9.07;;;;;;;;;;5117827;28;20197;-88
2021/03/02 01:16:12;;;;;;;9.80;8.67;;;;;;;;;;5117862;28;20173;-88
2021/03/02 01:18:38;;;;;;;10.70;8.80;;;;;;;;;;5117128;28;20204;-87
2021/03/02 01:21:05;;;;;;;10.13;9.07;;;;;;;;;;5117037;28;20237;-89
2021/03/02 01:23:31;;;;;;;11.10;8.97;;;;;;;;;;5116513;28;20193;-88
2021/03/02 01:25:58;;;;;;;12.13;8.80;;;;;;;;;;5117318;28;20232;-87
2021/03/02 01:28:24;;;;;;;10.57;8.87;;;;;;;;;;5116227;28;20209;-88
2021/03/02 01:30:50;;;;;;;12.73;9.57;;;;;;;;;;5117520;28;20177;-89
2021/03/02 01:33:17;;;;;;;12.30;9.67;;;;;;;;;;5116864;28;20185;-89
2021/03/02 01:35:43;;;;;;;13.67;8.43;;;;;;;;;;5115646;28;20216;-89
2021/03/02 01:38:09;;;;;;;12.67;8.63;;;;;;;;;;5117608;28;20205;-88
2021/03/02 01:40:35;;;;;;;12.37;8.83;;;;;;;;;;5116639;28;20190;-90
2021/03/02 01:43:02;;;;;;;10.20;8.47;;;;;;;;;;5116597;28;20243;-89
2021/03/02 01:45:28;;;;;;;11.20;8.60;;;;;;;;;;5117326;28;20578;-88
2021/03/02 01:47:55;;;;;;;10.50;8.33;;;;;;;;;;5117729;28;20186;-89
2021/03/02 01:50:22;;;;;;;11.47;8.90;;;;;;;;;;5117335;28;20196;-89
2021/03/02 01:52:48;;;;;;;11.33;8.80;;;;;;;;;;5116214;28;20251;-90
2021/03/02 01:55:15;;;;;;;14.87;9.27;;;;;;;;;;5116058;28;20196;-89
2021/03/02 01:57:42;;;;;;;12.33;9.13;;;;;;;;;;5117450;28;20177;-88
2021/03/02 02:00:12;;;;;;;10.57;8.37;;;;;;;;;;5116065;28;20197;-89
2021/03/02 02:02:43;;;;;;;14.73;9.63;;;;;;;;;;5117437;28;20577;-89
2021/03/02 02:05:12;;;;;;;13.00;9.53;;;;;;;;;;5115766;28;20281;-88
2021/03/02 02:07:41;;;;;;;11.43;8.93;;;;;;;;;;5116716;28;20451;-89
2021/03/02 02:10:12;;;;;;;13.53;8.73;;;;;;;;;;5117082;28;20252;-90
2021/03/02 02:12:40;;;;;;;10.50;9.20;;;;;;;;;;5116372;28;20189;-89
2021/03/02 02:15:07;;;;;;;11.40;8.60;;;;;;;;;;5116425;28;20193;-89
2021/03/02 02:17:37;;;;;;;10.30;8.10;;;;;;;;;;5116064;28;20238;-89
2021/03/02 02:20:05;;;;;;;11.80;9.50;;;;;;;;;;5117702;28;20170;-88
2021/03/02 02:22:41;;;;;;;12.50;8.77;;;;;;;;;;5116159;28;20204;-88
2021/03/02 02:25:18;;;;;;;10.23;8.80;;;;;;;;;;5115212;28;20199;-89
2021/03/02 02:27:46;;;;;;;12.40;9.30;;;;;;;;;;5098994;28;20378;-90
2021/03/02 02:30:13;;;;;;;10.63;8.33;;;;;;;;;;5116481;28;20266;-89
2021/03/02 02:32:41;;;;;;;13.50;9.40;;;;;;;;;;5115768;28;20216;-89
2021/03/02 02:35:08;;;;;;;10.57;8.60;;;;;;;;;;5117166;28;20601;-88
2021/03/02 02:37:34;;;;;;;11.60;8.73;;;;;;;;;;5115721;28;20197;-90
2021/03/02 02:40:02;;;;;;;12.07;8.67;;;;;;;;;;5117122;28;20174;-89
2021/03/02 02:42:29;;;;;;;11.07;9.03;;;;;;;;;;5116185;28;20189;-89
2021/03/02 02:44:57;;;;;;;12.10;8.60;;;;;;;;;;5115994;28;20193;-88
2021/03/02 02:47:23;;;;;;;10.00;7.97;;;;;;;;;;5116668;28;20178;-88
2021/03/02 02:49:50;;;;;;;13.37;9.30;;;;;;;;;;5117108;28;20220;-89
2021/03/02 02:52:17;;;;;;;12.00;8.90;;;;;;;;;;5115652;28;20208;-90
2021/03/02 02:54:45;;;;;;;10.07;8.33;;;;;;;;;;5116416;28;20192;-89
2021/03/02 02:57:13;;;;;;;13.50;9.03;;;;;;;;;;5115419;28;20189;-90
2021/03/02 02:59:40;;;;;;;10.17;9.03;;;;;;;;;;5115482;28;20235;-89
2021/03/02 03:02:09;;;;;;;11.83;8.80;;;;;;;;;;5121385;28;20269;-87
2021/03/02 03:04:38;;;;;;;9.63;8.43;;;;;;;;;;5131606;28;20246;-88
2021/03/02 03:07:07;;;;;;;10.73;9.23;;;;;;;;;;5133122;28;20648;-89
2021/03/02 03:09:34;;;;;;;11.93;9.17;;;;;;;;;;5134698;28;20228;-89
2021/03/02 03:12:01;;;;;;;11.47;8.73;;;;;;;;;;5133504;28;20645;-90
2021/03/02 03:14:28;;;;;;;10.50;8.83;;;;;;;;;;5132670;28;20223;-89
2021/03/02 03:16:54;;;;;;;12.67;9.07;;;;;;;;;;5132629;28;20196;-89
2021/03/02 03:19:24;;;;;;;13.10;8.73;;;;;;;;;;5134037;28;20205;-89
2021/03/02 03:21:51;;;;;;;10.13;8.30;;;;;;;;;;5132798;27;20597;-87
2021/03/02 03:24:17;;;;;;;10.23;8.87;;;;;;;;;;5129518;28;20193;-89
2021/03/02 03:26:45;;;;;;;11.10;8.30;;;;;;;;;;5129138;28;20181;-89
2021/03/02 03:29:11;;;;;;;11.33;8.00;;;;;;;;;;5129414;28;20220;-88
2021/03/02 03:31:38;;;;;;;12.47;8.57;;;;;;;;;;5128623;28;20226;-88
2021/03/02 03:34:05;;;;;;;11.07;8.63;;;;;;;;;;5128603;28;20224;-89
2021/03/02 03:36:32;;;;;;;9.50;8.37;;;;;;;;;;5129175;28;20173;-89
2021/03/02 03:38:58;;;;;;;10.90;8.47;;;;;;;;;;5131127;28;20168;-89
2021/03/02 03:41:25;;;;;;;11.77;9.27;;;;;;;;;;5130503;28;20201;-90
2021/03/02 03:43:51;;;;;;;11.10;8.40;;;;;;;;;;5129518;28;20467;-89
2021/03/02 03:46:17;;;;;;;13.17;8.40;;;;;;;;;;5129094;28;20202;-91
2021/03/02 03:48:43;;;;;;;14.87;9.30;;;;;;;;;;5130758;28;20197;-89
2021/03/02 03:51:09;;;;;;;10.43;8.47;;;;;;;;;;5130587;28;20497;-89
2021/03/02 03:53:37;;;;;;;10.73;8.70;;;;;;;;;;5129434;28;20189;-89
2021/03/02 03:56:05;;;;;;;11.47;8.47;;;;;;;;;;5129896;28;20205;-89
2021/03/02 03:58:32;;;;;;;14.80;8.97;;;;;;;;;;5129017;28;20215;-90
2021/03/02 04:01:01;;;;;;;14.87;9.20;;;;;;;;;;5129464;28;20589;-89
2021/03/02 04:03:28;;;;;;;11.03;9.00;;;;;;;;;;5129563;28;20244;-89
2021/03/02 04:05:55;;;;;;;12.20;8.93;;;;;;;;;;5129135;28;20193;-89
2021/03/02 04:08:21;;;;;;;12.10;8.57;;;;;;;;;;5130378;28;20216;-89
2021/03/02 04:10:48;;;;;;;17.33;9.03;;;;;;;;;;5129125;28;20213;-89
2021/03/02 04:13:15;;;;;;;14.07;9.10;;;;;;;;;;5128565;28;20223;-90
2021/03/02 04:15:42;;;;;;;12.20;8.70;;;;;;;;;;5130122;28;20189;-89
2021/03/02 04:18:09;;;;;;;13.17;9.27;;;;;;;;;;5130435;28;20197;-89
2021/03/02 04:20:35;;;;;;;13.00;9.20;;;;;;;;;;5128377;28;20169;-89
2021/03/02 04:23:01;;;;;;;13.03;9.33;;;;;;;;;;5124677;28;20196;-89
2021/03/02 04:25:27;;;;;;;14.27;10.03;;;;;;;;;;5124344;28;20186;-89
2021/03/02 04:27:54;;;;;;;14.13;8.83;;;;;;;;;;5130804;28;20174;-89
2021/03/02 04:30:21;;;;;;;15.77;9.50;;;;;;;;;;5124671;28;20210;-89
2021/03/02 04:32:48;;;;;;;13.77;9.17;;;;;;;;;;5131491;28;20174;-89
2021/03/02 04:35:14;;;;;;;13.83;9.23;;;;;;;;;;5130382;27;20235;-87
2021/03/02 04:37:40;;;;;;;13.37;9.73;;;;;;;;;;5134141;28;20189;-90
2021/03/02 04:40:07;;;;;;;11.93;9.03;;;;;;;;;;5136798;28;20679;-93
2021/03/02 04:42:34;;;;;;;16.73;9.37;;;;;;;;;;5139217;28;20169;-92
2021/03/02 04:45:01;;;;;;;12.37;10.07;;;;;;;;;;5135424;28;20180;-90
2021/03/02 04:47:27;;;;;;;17.33;11.50;;;;;;;;;;5137742;28;20196;-92
2021/03/02 04:49:53;;;;;;;14.93;12.17;;;;;;;;;;5130235;28;20209;-90
2021/03/02 04:52:19;;;;;;;18.87;11.93;;;;;;;;;;5124761;28;20186;-92
2021/03/02 04:54:46;;;;;;;17.43;11.53;;;;;;;;;;5127267;28;20586;-91
2021/03/02 04:57:12;;;;;;;16.30;12.07;;;;;;;;;;5129764;28;20658;-90
2021/03/02 04:59:38;;;;;;;15.27;11.30;;;;;;;;;;5130415;28;20181;-90
2021/03/02 05:02:05;;;;;;;16.77;12.13;;;;;;;;;;5132243;28;20205;-90
2021/03/02 05:04:31;;;;;;;14.73;11.00;;;;;;;;;;5124634;28;20224;-88
2021/03/02 05:06:57;;;;;;;14.77;10.57;;;;;;;;;;5119591;28;20177;-92
2021/03/02 05:09:24;;;;;;;15.17;10.83;;;;;;;;;;5118357;28;20248;-90
2021/03/02 05:11:50;;;;;;;13.43;10.23;;;;;;;;;;5119196;28;20192;-91
2021/03/02 05:14:16;;;;;;;12.97;9.93;;;;;;;;;;5119285;28;20189;-90
2021/03/02 05:16:42;;;;;;;13.10;9.70;;;;;;;;;;5118718;28;20189;-90
2021/03/02 05:19:09;;;;;;;14.80;10.20;;;;;;;;;;5118113;28;20181;-90
2021/03/02 05:21:36;;;;;;;15.73;10.10;;;;;;;;;;5118189;28;20581;-89
2021/03/02 05:24:02;;;;;;;14.93;9.87;;;;;;;;;;5118312;28;20197;-86
2021/03/02 05:26:28;;;;;;;15.80;10.67;;;;;;;;;;5118507;28;20216;-89
2021/03/02 05:28:57;;;;;;;17.37;11.20;;;;;;;;;;5117421;28;20192;-87
2021/03/02 05:31:23;;;;;;;17.53;11.33;;;;;;;;;;5117514;28;20497;-90
2021/03/02 05:33:49;;;;;;;13.77;10.40;;;;;;;;;;5117681;28;20234;-90
2021/03/02 05:36:16;;;;;;;13.80;10.00;;;;;;;;;;5119829;28;20181;-91
2021/03/02 05:38:43;;;;;;;16.30;10.40;;;;;;;;;;5118774;28;20197;-91
2021/03/02 05:41:09;;;;;;;15.30;10.13;;;;;;;;;;5117794;28;20254;-89
2021/03/02 05:43:36;;;;;;;17.77;10.93;;;;;;;;;;5117067;28;20193;-87
2021/03/02 05:46:02;;;;;;;15.13;10.97;;;;;;;;;;5118520;28;20184;-87
2021/03/02 05:48:29;;;;;;;18.53;11.20;;;;;;;;;;5116347;28;20462;-89
2021/03/02 05:50:56;;;;;;;12.93;10.17;;;;;;;;;;5117329;28;20232;-87
2021/03/02 05:53:23;;;;;;;14.30;9.77;;;;;;;;;;5116097;28;20197;-87
2021/03/02 05:55:49;;;;;;;16.53;9.77;;;;;;;;;;5117917;28;20184;-92
2021/03/02 05:58:16;;;;;;;13.20;9.47;;;;;;;;;;5116214;28;20209;-88
2021/03/02 06:00:42;;;;;;;14.80;9.33;;;;;;;;;;5117005;27;20220;-87
2021/03/02 06:03:09;;;;;;;15.60;8.80;;;;;;;;;;5118558;28;20204;-86
2021/03/02 06:05:35;;;;;;;12.73;9.13;;;;;;;;;;5116904;28;20221;-87
2021/03/02 06:08:01;;;;;;;13.83;8.80;;;;;;;;;;5115443;28;20470;-87
2021/03/02 06:10:32;;;;;;;11.50;8.50;;;;;;;;;;5116340;28;20228;-85
2021/03/02 06:12:58;;;;;;;11.63;9.00;;;;;;;;;;5115790;28;20189;-87
2021/03/02 06:15:25;;;;;;;11.40;8.70;;;;;;;;;;5115511;28;20241;-86
2021/03/02 06:18:06;;;;;;;11.00;8.33;;;;;;;;;;5116819;28;20266;-91
2021/03/02 06:20:32;;;;;;;15.83;9.37;;;;;;;;;;5117577;28;20215;-87
2021/03/02 06:22:58;;;;;;;12.93;9.20;;;;;;;;;;5116871;28;20201;-87
2021/03/02 06:25:28;;;;;;;15.07;9.07;;;;;;;;;;5117917;28;20178;-90
2021/03/02 06:27:55;;;;;;;12.50;9.67;;;;;;;;;;5116440;28;20212;-87
2021/03/02 06:30:22;;;;;;;10.53;8.90;;;;;;;;;;5115111;28;20625;-86
2021/03/02 06:32:49;;;;;;;11.97;9.57;;;;;;;;;;5118841;28;20205;-89
2021/03/02 06:35:28;;;;;;;15.80;11.43;;;;;;;;;;5118082;28;20754;-89
2021/03/02 06:37:55;;;;;;;15.23;10.87;;;;;;;;;;5119407;28;20204;-90
2021/03/02 06:40:35;;;;;;;11.97;10.10;;;;;;;;;;5120771;28;20223;-91
2021/03/02 06:43:02;;;;;;;12.60;9.40;;;;;;;;;;5123221;28;20217;-89
2021/03/02 06:45:28;;;;;;;14.87;9.27;;;;;;;;;;5120085;28;20205;-92
2021/03/02 06:48:01;;;;;;;14.47;9.83;;;;;;;;;;5118847;28;20188;-91
2021/03/02 06:50:27;;;;;;;14.73;10.10;;;;;;;;;;5119543;28;20217;-91
2021/03/02 06:52:53;;;;;;;19.07;10.97;;;;;;;;;;5119435;28;20205;-91
2021/03/02 06:55:24;;;;;;;20.70;12.47;;;;;;;;;;5119491;28;20593;-91
2021/03/02 06:57:50;;;;;;;17.47;13.23;;;;;;;;;;5120717;28;20636;-89
2021/03/02 07:00:31;;;;;;;22.30;12.77;;;;;;;;;;5120374;28;20201;-91
2021/03/02 07:02:57;;;;;;;16.90;11.67;;;;;;;;;;5119235;28;20193;-88
2021/03/02 07:05:23;;;;;;;15.97;11.33;;;;;;;;;;5117139;28;20225;-89
2021/03/02 07:07:55;;;;;;;14.27;11.13;;;;;;;;;;5118631;28;20177;-91
2021/03/02 07:10:21;;;;;;;14.47;10.53;;;;;;;;;;5118439;28;20224;-86
2021/03/02 07:12:48;;;;;;;12.63;10.03;;;;;;;;;;5119284;28;20223;-85
2021/03/02 07:15:17;;;;;;;18.93;10.40;;;;;;;;;;5117688;28;20205;-84
2021/03/02 07:17:44;;;;;;;14.63;10.40;;;;;;;;;;5114969;28;20217;-82
2021/03/02 07:20:12;;;;;;;12.27;9.27;;;;;;;;;;5116088;28;20193;-84
2021/03/02 07:22:39;;;;;;;16.90;9.73;;;;;;;;;;5114416;28;20233;-85
2021/03/02 07:25:08;;;;;;;12.87;8.87;;;;;;;;;;5115065;28;20201;-84
2021/03/02 07:27:37;;;;;;;13.67;9.00;;;;;;;;;;5114923;28;20232;-84
2021/03/02 07:30:05;;;;;;;17.17;9.90;;;;;;;;;;5114266;28;20989;-84
2021/03/02 07:32:31;;;;;;;12.33;8.87;;;;;;;;;;5115298;28;20322;-85
2021/03/02 07:34:59;;;;;;;13.97;9.43;;;;;;;;;;5113540;28;20197;-84
2021/03/02 07:37:25;;;;;;;11.73;9.07;;;;;;;;;;5114991;28;20218;-86
2021/03/02 07:40:01;;;;;;;11.60;9.10;;;;;;;;;;5116176;28;20447;-84
2021/03/02 07:42:27;;;;;;;11.13;8.27;;;;;;;;;;5114904;28;20620;-83
2021/03/02 07:45:00;;;;;;;13.17;9.30;;;;;;;;;;5115301;28;20205;-85
2021/03/02 07:47:40;;;;;;;13.67;9.17;;;;;;;;;;5116943;28;20201;-84
2021/03/02 07:50:18;;;;;;;12.87;9.53;;;;;;;;;;5119366;28;20247;-84
2021/03/02 07:52:45;;;;;;;14.40;9.13;;;;;;;;;;5117440;28;20196;-84
2021/03/02 07:55:21;;;;;;;14.97;8.70;;;;;;;;;;5118391;28;20286;-89
2021/03/02 07:57:48;;;;;;;15.50;9.57;;;;;;;;;;5118003;28;20239;-85
2021/03/02 08:00:24;;;;;;;13.13;9.20;;;;;;;;;;5118115;28;20660;-85
2021/03/02 08:03:08;;;;;;;13.50;9.03;;;;;;;;;;5116652;28;20531;-85
2021/03/02 08:05:36;;;;;;;13.73;8.70;;;;;;;;;;5117621;28;20229;-84
2021/03/02 08:08:20;;;;;;;12.83;9.00;;;;;;;;;;5116339;28;20277;-85
2021/03/02 08:10:46;;;;;;;14.07;8.50;;;;;;;;;;5118018;28;20224;-85
2021/03/02 08:13:27;;;;;;;12.37;9.03;;;;;;;;;;5117877;28;20233;-87
2021/03/02 08:15:53;;;;;;;14.23;9.10;;;;;;;;;;5117474;28;20201;-85
2021/03/02 08:18:27;;;;;;;13.50;8.43;;;;;;;;;;5117614;28;20213;-85
2021/03/02 08:21:10;;;;;;;10.77;8.53;;;;;;;;;;5117732;28;20243;-87
2021/03/02 08:23:46;;;;;;;13.70;9.83;;;;;;;;;;5117608;28;20212;-86
2021/03/02 08:26:23;;;;;;;12.13;9.30;;;;;;;;;;5115973;28;20192;-84
2021/03/02 08:29:08;;;;;;;10.90;8.57;;;;;;;;;;5116397;28;20209;-85
2021/03/02 08:31:35;;;;;;;11.33;8.80;;;;;;;;;;5150462;27;20211;-84
2021/03/02 08:34:02;;;;;;;15.13;8.83;;;;;;;;;;5116995;28;20616;-85
2021/03/02 08:36:29;;;;;;;17.27;9.13;;;;;;;;;;5117358;28;20274;-85
2021/03/02 08:38:56;;;;;;;13.93;8.43;;;;;;;;;;5115744;28;20250;-87
2021/03/02 08:41:28;;;;;;;9.40;8.30;;;;;;;;;;5117351;28;20239;-85
2021/03/02 08:43:55;;;;;;;11.97;8.67;;;;;;;;;;5116103;28;20197;-85
2021/03/02 08:46:24;;;;;;;14.70;8.70;;;;;;;;;;5117060;28;20247;-85
2021/03/02 08:48:50;;;;;;;12.47;8.80;;;;;;;;;;5117206;28;20466;-85
2021/03/02 08:51:19;;;;;;;10.00;8.37;;;;;;;;;;5115742;28;20641;-85
2021/03/02 08:53:48;;;;;;;11.33;8.77;;;;;;;;;;5115629;28;20226;-85
2021/03/02 08:56:19;;;;;;;14.37;9.07;;;;;;;;;;5116951;28;20235;-86
2021/03/02 08:58:46;;;;;;;14.17;9.23;;;;;;;;;;5115714;28;20224;-85
2021/03/02 09:01:13;;;;;;;10.73;8.87;;;;;;;;;;5116940;28;20232;-87
2021/03/02 09:03:40;;;;;;;11.77;8.63;;;;;;;;;;5116481;28;20228;-86
2021/03/02 09:06:13;;;;;;;13.10;8.77;;;;;;;;;;5116663;27;20660;-85
2021/03/02 09:08:48;;;;;;;16.70;8.80;;;;;;;;;;5115170;28;20230;-85
2021/03/02 09:11:14;;;;;;;12.20;9.03;;;;;;;;;;5115756;28;20291;-84
2021/03/02 09:13:43;;;;;;;11.87;8.37;;;;;;;;;;5116863;28;20185;-84
2021/03/02 09:16:23;;;;;;;13.67;9.10;;;;;;;;;;5116803;28;20241;-84
2021/03/02 09:18:57;;;;;;;11.23;8.50;;;;;;;;;;5115773;28;20204;-84
2021/03/02 09:21:24;;;;;;;12.23;9.10;;;;;;;;;;5116637;28;20234;-84
2021/03/02 09:23:51;;;;;;;12.63;9.00;;;;;;;;;;5116203;28;20225;-85
2021/03/02 09:26:18;;;;;;;12.60;9.13;;;;;;;;;;5115261;28;20223;-84
2021/03/02 09:28:45;;;;;;;10.53;8.67;;;;;;;;;;5116352;28;20240;-84
2021/03/02 09:31:11;;;;;;;12.67;9.33;;;;;;;;;;5116282;28;20251;-84
2021/03/02 09:33:37;;;;;;;11.17;8.80;;;;;;;;;;5116039;28;20232;-85
2021/03/02 09:36:04;;;;;;;10.00;8.63;;;;;;;;;;5116492;28;20211;-84
2021/03/02 09:38:30;;;;;;;12.60;9.57;;;;;;;;;;5116086;28;20231;-84
2021/03/02 09:40:57;;;;;;;14.80;8.97;;;;;;;;;;5116049;28;20208;-84
2021/03/02 09:43:33;;;;;;;16.43;9.07;;;;;;;;;;5114933;28;20557;-83
2021/03/02 09:45:59;;;;;;;15.10;8.70;;;;;;;;;;5116193;28;20493;-84
2021/03/02 09:48:25;;;;;;;14.70;9.57;;;;;;;;;;5115187;28;20228;-84
2021/03/02 09:50:51;;;;;;;14.97;10.20;;;;;;;;;;5116102;28;20660;-84
2021/03/02 09:53:18;;;;;;;11.83;9.40;;;;;;;;;;5115413;28;20205;-87
2021/03/02 09:55:45;;;;;;;13.67;9.73;;;;;;;;;;5114698;28;20251;-83
2021/03/02 09:58:16;;;;;;;16.30;10.17;;;;;;;;;;5114528;28;20462;-83
2021/03/02 10:00:48;;;;;;;13.93;10.00;;;;;;;;;;5116123;28;20228;-82
2021/03/02 10:03:15;;;;;;;15.27;10.13;;;;;;;;;;5115011;28;20216;-83
2021/03/02 10:05:43;;;;;;;11.60;9.70;;;;;;;;;;5115812;28;20254;-88
2021/03/02 10:08:24;;;;;;;15.57;9.67;;;;;;;;;;5116030;28;20197;-83
2021/03/02 10:10:50;;;;;;;12.77;9.83;;;;;;;;;;5115728;28;20299;-81
2021/03/02 10:13:27;;;;;;;14.80;9.90;;;;;;;;;;5115193;28;20240;-84
2021/03/02 10:16:09;;;;;;;12.43;9.80;;;;;;;;;;5115905;28;20232;-84
2021/03/02 10:18:35;;;;;;;11.70;9.60;;;;;;;;;;5113812;28;20228;-85
2021/03/02 10:21:02;;;;;;;15.53;10.23;;;;;;;;;;5115582;28;20197;-83
2021/03/02 10:23:29;;;;;;;11.60;9.67;;;;;;;;;;5115390;28;20208;-83
2021/03/02 10:25:56;;;;;;;13.33;10.33;;;;;;;;;;5117648;28;20216;-91
2021/03/02 10:28:29;;;;;;;13.70;9.97;;;;;;;;;;5116782;28;20212;-80
2021/03/02 10:30:55;;;;;;;13.93;10.37;;;;;;;;;;5115529;28;20252;-80
2021/03/02 10:33:21;;;;;;;11.70;9.80;;;;;;;;;;5113839;28;20197;-80
2021/03/02 10:35:47;;;;;;;13.80;9.97;;;;;;;;;;5115358;28;20244;-81
2021/03/02 10:38:13;;;;;;;16.23;10.50;;;;;;;;;;5114848;28;20511;-81
2021/03/02 10:40:40;;;;;;;11.93;9.87;;;;;;;;;;5115188;28;20235;-83
2021/03/02 10:43:06;;;;;;;16.90;10.40;;;;;;;;;;5114879;28;20201;-82
2021/03/02 10:45:33;;;;;;;11.67;9.63;;;;;;;;;;5115336;28;20297;-83
2021/03/02 10:47:59;;;;;;;13.80;10.47;;;;;;;;;;5114718;28;20197;-81
2021/03/02 10:50:25;;;;;;;13.37;10.53;;;;;;;;;;5115041;28;20656;-81
2021/03/02 10:52:51;;;;;;;13.20;10.30;;;;;;;;;;5114429;28;20236;-82
2021/03/02 10:55:17;;;;;;;16.53;10.57;;;;;;;;;;5113920;28;20250;-81
2021/03/02 10:57:43;;;;;;;12.87;10.37;;;;;;;;;;5114919;28;20232;-81
2021/03/02 11:00:11;;;;;;;14.30;10.60;;;;;;;;;;5114770;28;20228;-82
2021/03/02 11:02:38;;;;;;;11.93;10.17;;;;;;;;;;5114384;28;20539;-81
2021/03/02 11:05:06;;;;;;;12.97;10.57;;;;;;;;;;5114763;28;20568;-86
2021/03/02 11:07:32;;;;;;;12.33;10.20;;;;;;;;;;5114719;28;20201;-82
2021/03/02 11:09:58;;;;;;;14.33;10.63;;;;;;;;;;5114462;28;20505;-83
2021/03/02 11:12:24;;;;;;;13.53;10.97;;;;;;;;;;5114657;28;20289;-82
2021/03/02 11:14:50;;;;;;;13.60;10.53;;;;;;;;;;5114780;28;20230;-82
2021/03/02 11:17:16;;;;;;;14.63;10.50;;;;;;;;;;5114937;28;20216;-78
2021/03/02 11:19:43;;;;;;;13.70;10.53;;;;;;;;;;5114877;28;20617;-77
2021/03/02 11:22:09;;;;;;;12.67;10.33;;;;;;;;;;5116111;28;20193;-77
2021/03/02 11:24:35;;;;;;;13.27;10.13;;;;;;;;;;5118844;28;20274;-80
2021/03/02 11:27:02;;;;;;;12.30;10.83;;;;;;;;;;5118820;28;20616;-82
2021/03/02 11:29:28;;;;;;;15.17;10.93;;;;;;;;;;5118581;28;20237;-82
2021/03/02 11:31:54;;;;;;;14.30;10.20;;;;;;;;;;5118200;28;20248;-80
2021/03/02 11:34:21;;;;;;;13.10;10.00;;;;;;;;;;5118536;28;20201;-82
2021/03/02 11:36:48;;;;;;;13.07;10.87;;;;;;;;;;5118498;28;20208;-81
2021/03/02 11:39:15;;;;;;;13.50;11.20;;;;;;;;;;5118649;28;20236;-82
2021/03/02 11:41:41;;;;;;;12.57;10.70;;;;;;;;;;5118685;28;20232;-83
2021/03/02 11:44:08;;;;;;;17.07;10.57;;;;;;;;;;5118670;27;20239;-82
2021/03/02 11:46:34;;;;;;;12.10;10.53;;;;;;;;;;5118373;28;20236;-82
2021/03/02 11:49:00;;;;;;;14.57;10.80;;;;;;;;;;5117991;28;20232;-83
2021/03/02 11:51:26;;;;;;;11.30;10.03;;;;;;;;;;5118244;28;20245;-82
2021/03/02 11:53:53;;;;;;;17.57;10.73;;;;;;;;;;5118202;28;20616;-83
2021/03/02 11:56:20;;;;;;;19.77;10.37;;;;;;;;;;5118256;28;20228;-83
2021/03/02 11:58:46;;;;;;;13.97;11.13;;;;;;;;;;5117481;28;20489;-81
2021/03/02 12:01:12;;;;;;;16.27;10.50;;;;;;;;;;5117688;27;20329;-82
2021/03/02 12:03:38;;;;;;;12.03;10.37;;;;;;;;;;5114635;28;20265;-82
2021/03/02 12:06:04;;;;;;;13.13;10.37;;;;;;;;;;5117609;28;20236;-83
2021/03/02 12:08:30;;;;;;;13.47;10.70;;;;;;;;;;5116808;27;20237;-85
2021/03/02 12:10:57;;;;;;;15.40;10.23;;;;;;;;;;5117344;28;20249;-83
2021/03/02 12:13:23;;;;;;;12.97;10.63;;;;;;;;;;5116699;28;20224;-83
2021/03/02 12:15:50;;;;;;;13.73;11.10;;;;;;;;;;5117234;28;20228;-84
2021/03/02 12:18:16;;;;;;;14.67;10.93;;;;;;;;;;5116790;28;20518;-84
2021/03/02 12:20:42;;;;;;;15.27;10.77;;;;;;;;;;5117333;28;20564;-83
2021/03/02 12:23:08;;;;;;;14.03;10.73;;;;;;;;;;5116538;28;20228;-82
2021/03/02 12:25:34;;;;;;;13.30;10.40;;;;;;;;;;5117079;28;20229;-82
2021/03/02 12:28:01;;;;;;;15.20;11.37;;;;;;;;;;5116789;28;20249;-82
2021/03/02 12:30:27;;;;;;;12.67;10.57;;;;;;;;;;5117143;28;20228;-84
2021/03/02 12:32:53;;;;;;;15.10;10.77;;;;;;;;;;5116166;28;20274;-81
2021/03/02 12:35:20;;;;;;;13.43;11.20;;;;;;;;;;5116641;28;20613;-83
2021/03/02 12:37:46;;;;;;;15.83;10.53;;;;;;;;;;5116847;28;20235;-83
2021/03/02 12:40:12;;;;;;;13.00;10.13;;;;;;;;;;5118143;28;20256;-83
2021/03/02 12:42:38;;;;;;;14.37;10.20;;;;;;;;;;5116758;28;20228;-84
2021/03/02 12:45:06;;;;;;;12.70;10.37;;;;;;;;;;5116467;28;20236;-83
2021/03/02 12:47:32;;;;;;;14.40;11.00;;;;;;;;;;5116250;28;20205;-83
2021/03/02 12:49:58;;;;;;;13.80;10.17;;;;;;;;;;5115616;28;20240;-84
2021/03/02 12:52:24;;;;;;;14.33;11.00;;;;;;;;;;5116717;27;20244;-82
2021/03/02 12:54:51;;;;;;;12.43;10.03;;;;;;;;;;5114412;28;20232;-82
2021/03/02 12:57:17;;;;;;;15.10;10.20;;;;;;;;;;5115223;28;20224;-84
2021/03/02 12:59:43;;;;;;;16.87;10.00;;;;;;;;;;5114639;28;20534;-83
2021/03/02 13:02:10;;;;;;;16.50;10.83;;;;;;;;;;5116442;28;20221;-85
2021/03/02 13:04:37;;;;;;;15.80;11.03;;;;;;;;;;5114619;28;20232;-83
2021/03/02 13:07:03;;;;;;;14.40;10.90;;;;;;;;;;5116648;28;20201;-84
2021/03/02 13:09:29;;;;;;;12.47;10.90;;;;;;;;;;5114815;28;20265;-83
2021/03/02 13:11:55;;;;;;;15.77;10.93;;;;;;;;;;5115907;28;20255;-86
2021/03/02 13:14:21;;;;;;;15.60;10.87;;;;;;;;;;5115804;28;20232;-84
2021/03/02 13:16:50;;;;;;;15.00;10.83;;;;;;;;;;5116065;28;20232;-84
2021/03/02 13:19:17;;;;;;;15.83;10.37;;;;;;;;;;5115629;28;20239;-82
2021/03/02 13:21:43;;;;;;;12.63;10.20;;;;;;;;;;5116122;28;20220;-82
2021/03/02 13:24:11;;;;;;;12.23;10.07;;;;;;;;;;5115703;28;20233;-82
2021/03/02 13:26:37;;;;;;;15.00;10.77;;;;;;;;;;5115633;28;20236;-82
2021/03/02 13:29:07;;;;;;;14.50;11.10;;;;;;;;;;5115812;28;20232;-82
2021/03/02 13:31:35;;;;;;;12.17;10.67;;;;;;;;;;5115012;28;20259;-83
2021/03/02 13:34:03;;;;;;;12.97;10.17;;;;;;;;;;5115396;28;20534;-81
2021/03/02 13:36:30;;;;;;;11.37;9.70;;;;;;;;;;5115234;28;20232;-82
2021/03/02 13:38:58;;;;;;;12.83;10.63;;;;;;;;;;5115148;28;20617;-83
2021/03/02 13:41:24;;;;;;;17.00;10.30;;;;;;;;;;5115752;28;20228;-82
2021/03/02 13:43:50;;;;;;;16.73;10.17;;;;;;;;;;5115346;28;20232;-84
2021/03/02 13:46:17;;;;;;;13.77;11.00;;;;;;;;;;5115059;28;20201;-84
2021/03/02 13:48:43;;;;;;;14.40;10.57;;;;;;;;;;5115174;28;20228;-83
2021/03/02 13:51:09;;;;;;;14.83;9.93;;;;;;;;;;5114534;28;20240;-84
2021/03/02 13:53:36;;;;;;;12.07;10.20;;;;;;;;;;5115235;28;20201;-81
2021/03/02 13:56:02;;;;;;;14.13;10.10;;;;;;;;;;5114345;28;20228;-81
2021/03/02 13:58:29;;;;;;;17.27;10.73;;;;;;;;;;5115138;28;20237;-85
2021/03/02 14:00:55;;;;;;;11.83;10.20;;;;;;;;;;5115305;28;20232;-82
2021/03/02 14:03:22;;;;;;;12.87;10.50;;;;;;;;;;5115450;28;20275;-82
2021/03/02 14:05:48;;;;;;;11.83;10.47;;;;;;;;;;5114248;28;20644;-82
2021/03/02 14:08:15;;;;;;;12.90;10.77;;;;;;;;;;5115069;28;20240;-83
2021/03/02 14:10:44;;;;;;;11.75;10.30;;;;;;;;;;5114233;28;20305;-83
2021/03/02 14:13:10;;;;;;;11.55;9.73;;;;;;;;;;5115576;28;20224;-83
2021/03/02 14:15:36;;;;;;;13.02;11.52;;;;;;;;;;5115604;28;20231;-84
2021/03/02 14:18:02;;;;;;;11.13;10.05;;;;;;;;;;5114218;28;20242;-84
2021/03/02 14:20:29;;;;;;;11.57;10.00;;;;;;;;;;5115256;28;20205;-80
2021/03/02 14:22:56;;;;;;;14.45;10.65;;;;;;;;;;5115410;28;20233;-82
2021/03/02 14:25:23;;;;;;;11.15;9.98;;;;;;;;;;5115350;27;20205;-81
2021/03/02 14:27:50;;;;;;;11.63;10.05;;;;;;;;;;5115598;28;20605;-83